createdAt,value
2023-03-28T00:00:13.356Z,2.76
2023-03-28T00:01:13.370Z,2.71
2023-03-28T00:02:13.335Z,2.69
2023-03-28T00:03:13.329Z,2.69
2023-03-28T00:04:13.415Z,2.71
2023-03-28T00:05:13.304Z,2.68
2023-03-28T00:06:13.330Z,2.66
2023-03-28T00:07:13.282Z,2.66
2023-03-28T00:08:13.339Z,2.62
2023-03-28T00:09:13.259Z,2.62
2023-03-28T00:10:13.251Z,2.59
2023-03-28T00:11:13.242Z,2.56
2023-03-28T00:12:13.242Z,2.55
2023-03-28T00:13:13.210Z,2.51
2023-03-28T00:14:13.202Z,2.50
2023-03-28T00:15:13.189Z,2.44
2023-03-28T00:16:13.388Z,2.41
2023-03-28T00:17:13.168Z,2.37
2023-03-28T00:18:13.161Z,2.37
2023-03-28T00:19:13.143Z,2.33
2023-03-28T00:20:13.172Z,2.29
2023-03-28T00:21:13.124Z,2.29
2023-03-28T00:22:13.109Z,2.29
2023-03-28T00:23:13.102Z,2.27
2023-03-28T00:24:13.088Z,2.22
2023-03-28T00:25:13.078Z,2.20
2023-03-28T00:26:13.078Z,2.22
2023-03-28T00:27:13.050Z,2.22
2023-03-28T00:28:13.036Z,2.20
2023-03-28T00:29:13.031Z,2.19
2023-03-28T00:30:13.015Z,2.11
2023-03-28T00:31:13.122Z,2.12
2023-03-28T00:32:13.013Z,2.14
2023-03-28T00:33:12.991Z,2.15
2023-03-28T00:34:12.971Z,2.19
2023-03-28T00:35:12.968Z,2.25
2023-03-28T00:36:12.973Z,2.29
2023-03-28T00:37:12.935Z,2.29
2023-03-28T00:38:12.921Z,2.30
2023-03-28T00:39:12.911Z,2.33
2023-03-28T00:40:12.901Z,2.32
2023-03-28T00:41:12.890Z,2.38
2023-03-28T00:42:12.877Z,2.37
2023-03-28T00:43:12.868Z,2.37
2023-03-28T00:44:12.854Z,2.37
2023-03-28T00:45:12.845Z,2.32
2023-03-28T00:46:13.009Z,2.33
2023-03-28T00:47:12.815Z,2.36
2023-03-28T00:48:15.383Z,2.37
2023-03-28T00:49:12.798Z,2.41
2023-03-28T00:50:12.790Z,2.43
2023-03-28T00:51:12.780Z,2.41
2023-03-28T00:52:12.784Z,2.41
2023-03-28T00:53:12.752Z,2.38
2023-03-28T00:54:12.738Z,2.37
2023-03-28T00:55:12.722Z,2.38
2023-03-28T00:56:12.713Z,2.40
2023-03-28T00:57:12.777Z,2.40
2023-03-28T00:58:12.690Z,2.43
2023-03-28T00:59:12.683Z,2.41
2023-03-28T01:00:12.665Z,2.45
2023-03-28T01:01:12.679Z,2.45
2023-03-28T01:02:12.670Z,2.43
2023-03-28T01:03:12.736Z,2.37
2023-03-28T01:04:12.619Z,2.38
2023-03-28T01:05:12.612Z,2.38
2023-03-28T01:06:12.624Z,2.38
2023-03-28T01:07:12.608Z,2.32
2023-03-28T01:08:12.808Z,2.32
2023-03-28T01:09:12.602Z,2.33
2023-03-28T01:10:12.559Z,2.36
2023-03-28T01:11:12.544Z,2.36
2023-03-28T01:12:12.522Z,2.32
2023-03-28T01:13:12.516Z,2.40
2023-03-28T01:14:12.500Z,2.40
2023-03-28T01:15:12.510Z,2.41
2023-03-28T01:16:12.541Z,2.47
2023-03-28T01:17:12.464Z,2.50
2023-03-28T01:18:12.455Z,2.51
2023-03-28T01:19:12.453Z,2.50
2023-03-28T01:20:12.428Z,2.50
2023-03-28T01:21:12.415Z,2.53
2023-03-28T01:22:12.410Z,2.51
2023-03-28T01:23:12.399Z,2.50
2023-03-28T01:24:12.681Z,2.50
2023-03-28T01:25:12.371Z,2.53
2023-03-28T01:26:12.363Z,2.50
2023-03-28T01:27:12.349Z,2.48
2023-03-28T01:28:12.345Z,2.48
2023-03-28T01:29:12.334Z,2.48
2023-03-28T01:30:12.330Z,2.45
2023-03-28T01:31:12.323Z,2.41
2023-03-28T01:32:12.312Z,2.40
2023-03-28T01:33:12.280Z,2.36
2023-03-28T01:34:12.271Z,2.43
2023-03-28T01:35:12.280Z,2.44
2023-03-28T01:36:12.247Z,2.47
2023-03-28T01:37:13.264Z,2.43
2023-03-28T01:38:12.228Z,2.45
2023-03-28T01:39:12.216Z,2.44
2023-03-28T01:40:12.301Z,2.38
2023-03-28T01:41:12.194Z,2.33
2023-03-28T01:42:12.180Z,2.27
2023-03-28T01:43:12.164Z,2.22
2023-03-28T01:44:12.158Z,2.14
2023-03-28T01:45:12.160Z,2.22
2023-03-28T01:46:12.171Z,2.29
2023-03-28T01:47:12.120Z,2.40
2023-03-28T01:48:12.118Z,2.38
2023-03-28T01:49:12.144Z,2.41
2023-03-28T01:50:12.087Z,2.45
2023-03-28T01:51:12.073Z,2.44
2023-03-28T01:52:12.063Z,2.43
2023-03-28T01:53:12.049Z,2.45
2023-03-28T01:54:12.189Z,2.44
2023-03-28T01:55:12.026Z,2.45
2023-03-28T01:56:12.037Z,2.38
2023-03-28T01:57:12.051Z,2.37
2023-03-28T01:58:11.997Z,2.30
2023-03-28T01:59:11.981Z,2.27
2023-03-28T02:00:12.060Z,2.23
2023-03-28T02:01:12.000Z,2.23
2023-03-28T02:02:12.016Z,2.23
2023-03-28T02:03:12.131Z,2.22
2023-03-28T02:04:19.904Z,2.26
2023-03-28T02:05:11.932Z,2.19
2023-03-28T02:06:11.901Z,2.15
2023-03-28T02:07:11.888Z,2.14
2023-03-28T02:08:11.882Z,2.11
2023-03-28T02:09:11.881Z,2.08
2023-03-28T02:10:11.856Z,2.07
2023-03-28T02:11:11.850Z,2.08
2023-03-28T02:12:11.916Z,2.07
2023-03-28T02:13:11.942Z,2.11
2023-03-28T02:14:11.811Z,2.11
2023-03-28T02:15:11.805Z,2.11
2023-03-28T02:16:11.807Z,2.11
2023-03-28T02:17:11.777Z,2.11
2023-03-28T02:18:11.768Z,2.11
2023-03-28T02:19:11.759Z,2.14
2023-03-28T02:20:11.811Z,2.22
2023-03-28T02:21:11.742Z,2.18
2023-03-28T02:22:11.724Z,2.12
2023-03-28T02:23:11.709Z,2.08
2023-03-28T02:24:11.699Z,2.09
2023-03-28T02:25:11.688Z,2.07
2023-03-28T02:26:11.678Z,2.07
2023-03-28T02:27:11.664Z,2.04
2023-03-28T02:28:11.680Z,2.05
2023-03-28T02:29:11.644Z,1.98
2023-03-28T02:30:11.632Z,1.98
2023-03-28T02:31:11.640Z,1.90
2023-03-28T02:32:11.616Z,1.92
2023-03-28T02:33:11.599Z,1.95
2023-03-28T02:34:11.588Z,1.93
2023-03-28T02:35:11.577Z,1.89
2023-03-28T02:36:11.567Z,2.00
2023-03-28T02:37:11.554Z,2.04
2023-03-28T02:38:11.547Z,1.98
2023-03-28T02:39:11.532Z,1.93
2023-03-28T02:40:11.523Z,1.90
2023-03-28T02:41:11.516Z,1.85
2023-03-28T02:42:11.498Z,1.77
2023-03-28T02:43:11.491Z,1.81
2023-03-28T02:44:11.503Z,1.79
2023-03-28T02:45:11.474Z,1.82
2023-03-28T02:46:11.489Z,1.81
2023-03-28T02:47:11.447Z,1.88
2023-03-28T02:48:11.437Z,1.92
2023-03-28T02:49:11.437Z,1.98
2023-03-28T02:50:11.426Z,1.93
2023-03-28T02:51:11.420Z,1.93
2023-03-28T02:52:11.395Z,1.93
2023-03-28T02:53:11.383Z,1.98
2023-03-28T02:54:11.374Z,1.93
2023-03-28T02:55:11.363Z,2.05
2023-03-28T02:56:11.353Z,2.11
2023-03-28T02:57:11.352Z,2.11
2023-03-28T02:58:11.348Z,2.08
2023-03-28T02:59:11.319Z,2.05
2023-03-28T03:00:11.334Z,2.07
2023-03-28T03:01:11.317Z,2.09
2023-03-28T03:02:11.287Z,2.12
2023-03-28T03:03:11.376Z,2.18
2023-03-28T03:04:11.322Z,2.15
2023-03-28T03:05:11.247Z,2.27
2023-03-28T03:06:11.239Z,2.36
2023-03-28T03:07:11.235Z,2.36
2023-03-28T03:08:11.216Z,2.30
2023-03-28T03:09:11.206Z,2.30
2023-03-28T03:10:11.208Z,2.29
2023-03-28T03:11:11.185Z,2.32
2023-03-28T03:12:11.169Z,2.32
2023-03-28T03:13:11.161Z,2.30
2023-03-28T03:14:11.146Z,2.27
2023-03-28T03:15:11.134Z,2.29
2023-03-28T03:16:11.191Z,2.22
2023-03-28T03:17:11.110Z,2.18
2023-03-28T03:18:11.122Z,2.12
2023-03-28T03:19:11.101Z,2.07
2023-03-28T03:20:11.081Z,2.09
2023-03-28T03:21:11.064Z,2.07
2023-03-28T03:22:11.055Z,2.07
2023-03-28T03:23:12.078Z,2.05
2023-03-28T03:24:11.031Z,2.02
2023-03-28T03:25:12.433Z,1.93
2023-03-28T03:26:11.018Z,1.88
2023-03-28T03:27:10.995Z,1.85
2023-03-28T03:28:10.984Z,1.75
2023-03-28T03:29:10.971Z,1.72
2023-03-28T03:30:10.962Z,1.71
2023-03-28T03:31:10.985Z,1.75
2023-03-28T03:32:10.972Z,1.77
2023-03-28T03:33:10.928Z,1.81
2023-03-28T03:34:10.917Z,1.79
2023-03-28T03:35:10.904Z,1.74
2023-03-28T03:36:10.895Z,1.68
2023-03-28T03:37:10.881Z,1.63
2023-03-28T03:38:10.872Z,1.56
2023-03-28T03:39:10.858Z,1.47
2023-03-28T03:40:10.849Z,1.43
2023-03-28T03:41:10.838Z,1.52
2023-03-28T03:42:10.831Z,1.53
2023-03-28T03:43:10.818Z,1.60
2023-03-28T03:44:10.808Z,1.49
2023-03-28T03:45:10.794Z,1.43
2023-03-28T03:46:10.841Z,1.38
2023-03-28T03:47:10.778Z,1.34
2023-03-28T03:48:10.839Z,1.31
2023-03-28T03:49:10.753Z,1.32
2023-03-28T03:50:10.744Z,1.31
2023-03-28T03:51:10.733Z,1.42
2023-03-28T03:52:10.720Z,1.39
2023-03-28T03:53:10.797Z,1.43
2023-03-28T03:54:10.698Z,1.46
2023-03-28T03:55:10.693Z,1.43
2023-03-28T03:56:10.682Z,1.42
2023-03-28T03:57:10.689Z,1.39
2023-03-28T03:58:10.655Z,1.35
2023-03-28T03:59:10.646Z,1.42
2023-03-28T04:00:10.637Z,1.42
2023-03-28T04:01:10.619Z,1.34
2023-03-28T04:02:10.663Z,1.28
2023-03-28T04:03:25.127Z,1.25
2023-03-28T04:04:11.729Z,1.21
2023-03-28T04:05:10.590Z,1.25
2023-03-28T04:06:10.571Z,1.28
2023-03-28T04:07:10.556Z,1.25
2023-03-28T04:08:10.546Z,1.29
2023-03-28T04:09:10.541Z,1.31
2023-03-28T04:10:10.526Z,1.29
2023-03-28T04:11:10.531Z,1.42
2023-03-28T04:12:10.504Z,1.39
2023-03-28T04:13:10.493Z,1.43
2023-03-28T04:14:10.481Z,1.44
2023-03-28T04:15:10.472Z,1.50
2023-03-28T04:16:10.516Z,1.53
2023-03-28T04:17:10.449Z,1.52
2023-03-28T04:18:10.458Z,1.49
2023-03-28T04:19:10.425Z,1.57
2023-03-28T04:20:10.440Z,1.54
2023-03-28T04:21:10.401Z,1.50
2023-03-28T04:22:10.393Z,1.46
2023-03-28T04:23:10.394Z,1.39
2023-03-28T04:24:10.371Z,1.42
2023-03-28T04:25:10.363Z,1.42
2023-03-28T04:26:10.348Z,1.47
2023-03-28T04:27:10.339Z,1.50
2023-03-28T04:28:10.336Z,1.46
2023-03-28T04:29:10.319Z,1.39
2023-03-28T04:30:10.310Z,1.38
2023-03-28T04:31:10.331Z,1.44
2023-03-28T04:32:10.287Z,1.42
2023-03-28T04:33:10.286Z,1.39
2023-03-28T04:34:10.272Z,1.35
2023-03-28T04:35:10.253Z,1.34
2023-03-28T04:36:10.323Z,1.36
2023-03-28T04:37:10.235Z,1.42
2023-03-28T04:38:10.233Z,1.46
2023-03-28T04:39:11.250Z,1.47
2023-03-28T04:40:10.201Z,1.43
2023-03-28T04:41:10.195Z,1.52
2023-03-28T04:42:10.256Z,1.56
2023-03-28T04:43:10.178Z,1.60
2023-03-28T04:44:10.165Z,1.65
2023-03-28T04:45:10.156Z,1.64
2023-03-28T04:46:10.167Z,1.70
2023-03-28T04:47:10.129Z,1.70
2023-03-28T04:48:10.167Z,1.70
2023-03-28T04:49:10.111Z,1.71
2023-03-28T04:50:10.125Z,1.75
2023-03-28T04:51:10.089Z,1.75
2023-03-28T04:52:10.116Z,1.81
2023-03-28T04:53:10.069Z,1.85
2023-03-28T04:54:10.055Z,1.86
2023-03-28T04:55:10.046Z,1.89
2023-03-28T04:56:10.034Z,1.88
2023-03-28T04:57:10.098Z,1.88
2023-03-28T04:58:10.008Z,1.88
2023-03-28T04:59:09.999Z,1.95
2023-03-28T05:00:10.031Z,1.98
2023-03-28T05:01:09.991Z,1.98
2023-03-28T05:02:09.988Z,1.98
2023-03-28T05:03:12.751Z,2.01
2023-03-28T05:04:09.936Z,2.01
2023-03-28T05:05:09.927Z,2.05
2023-03-28T05:06:09.918Z,2.08
2023-03-28T05:07:09.908Z,2.09
2023-03-28T05:08:09.915Z,2.07
2023-03-28T05:09:09.878Z,2.09
2023-03-28T05:10:11.203Z,2.09
2023-03-28T05:11:09.854Z,2.11
2023-03-28T05:12:09.842Z,2.11
2023-03-28T05:13:09.832Z,2.11
2023-03-28T05:14:09.817Z,2.11
2023-03-28T05:15:09.811Z,2.09
2023-03-28T05:16:09.833Z,2.05
2023-03-28T05:17:09.783Z,2.08
2023-03-28T05:18:09.833Z,2.09
2023-03-28T05:19:09.761Z,2.11
2023-03-28T05:20:09.758Z,2.09
2023-03-28T05:21:09.742Z,2.07
2023-03-28T05:22:09.728Z,2.04
2023-03-28T05:23:09.756Z,2.04
2023-03-28T05:24:09.731Z,2.05
2023-03-28T05:25:09.705Z,2.04
2023-03-28T05:26:09.682Z,2.02
2023-03-28T05:27:09.671Z,2.04
2023-03-28T05:28:09.663Z,2.07
2023-03-28T05:29:09.653Z,2.08
2023-03-28T05:30:09.692Z,2.08
2023-03-28T05:31:09.627Z,2.07
2023-03-28T05:32:09.697Z,2.08
2023-03-28T05:33:09.653Z,2.04
2023-03-28T05:34:09.592Z,2.04
2023-03-28T05:35:09.586Z,2.02
2023-03-28T05:36:09.638Z,2.09
2023-03-28T05:37:09.560Z,2.09
2023-03-28T05:38:09.551Z,2.11
2023-03-28T05:39:09.540Z,2.15
2023-03-28T05:40:09.555Z,2.18
2023-03-28T05:41:09.513Z,2.22
2023-03-28T05:42:09.501Z,2.22
2023-03-28T05:43:09.501Z,2.25
2023-03-28T05:44:09.483Z,2.25
2023-03-28T05:45:09.482Z,2.26
2023-03-28T05:46:09.499Z,2.26
2023-03-28T05:47:09.448Z,2.27
2023-03-28T05:48:09.498Z,2.27
2023-03-28T05:49:09.427Z,2.29
2023-03-28T05:50:09.425Z,2.30
2023-03-28T05:51:09.409Z,2.32
2023-03-28T05:52:09.392Z,2.36
2023-03-28T05:53:09.383Z,2.37
2023-03-28T05:54:09.374Z,2.40
2023-03-28T05:55:09.361Z,2.43
2023-03-28T05:56:09.380Z,2.41
2023-03-28T05:57:09.406Z,2.45
2023-03-28T05:58:09.324Z,2.41
2023-03-28T05:59:09.323Z,2.43
2023-03-28T06:00:09.304Z,2.41
2023-03-28T06:01:09.294Z,2.44
2023-03-28T06:02:09.279Z,2.47
2023-03-28T06:03:09.332Z,2.47
2023-03-28T06:04:09.289Z,2.50
2023-03-28T06:05:09.282Z,2.51
2023-03-28T06:06:09.262Z,2.50
2023-03-28T06:07:09.226Z,2.50
2023-03-28T06:08:09.212Z,2.47
2023-03-28T06:09:09.202Z,2.48
2023-03-28T06:10:09.275Z,2.53
2023-03-28T06:11:09.226Z,2.55
2023-03-28T06:12:09.200Z,2.56
2023-03-28T06:13:09.159Z,2.59
2023-03-28T06:14:09.143Z,2.61
2023-03-28T06:15:09.136Z,2.63
2023-03-28T06:16:09.122Z,2.66
2023-03-28T06:17:09.161Z,2.68
2023-03-28T06:18:09.133Z,2.74
2023-03-28T06:19:17.884Z,2.76
2023-03-28T06:20:10.235Z,2.77
2023-03-28T06:21:09.066Z,2.80
2023-03-28T06:22:09.068Z,2.83
2023-03-28T06:23:09.046Z,2.86
2023-03-28T06:24:09.045Z,2.90
2023-03-28T06:25:09.028Z,2.90
2023-03-28T06:26:09.016Z,2.89
2023-03-28T06:27:09.001Z,2.83
2023-03-28T06:28:09.017Z,2.80
2023-03-28T06:29:08.982Z,2.79
2023-03-28T06:30:08.975Z,2.74
2023-03-28T06:31:09.049Z,2.76
2023-03-28T06:32:08.946Z,2.79
2023-03-28T06:33:09.008Z,2.80
2023-03-28T06:34:08.929Z,2.77
2023-03-28T06:35:08.927Z,2.77
2023-03-28T06:36:08.918Z,2.79
2023-03-28T06:37:08.895Z,2.86
2023-03-28T06:38:08.946Z,2.95
2023-03-28T06:39:08.878Z,2.95
2023-03-28T06:40:08.861Z,3.05
2023-03-28T06:41:08.857Z,3.20
2023-03-28T06:42:08.848Z,3.34
2023-03-28T06:43:08.831Z,3.37
2023-03-28T06:44:08.837Z,3.28
2023-03-28T06:45:08.813Z,3.19
2023-03-28T06:46:08.926Z,3.15
2023-03-28T06:47:08.783Z,3.07
2023-03-28T06:48:08.884Z,3.08
2023-03-28T06:49:08.765Z,3.26
2023-03-28T06:50:08.755Z,3.56
2023-03-28T06:51:08.736Z,3.74
2023-03-28T06:52:08.724Z,3.74
2023-03-28T06:53:08.719Z,3.71
2023-03-28T06:54:08.707Z,3.67
2023-03-28T06:55:08.700Z,3.68
2023-03-28T06:56:08.684Z,3.60
2023-03-28T06:57:08.766Z,3.53
2023-03-28T06:58:08.658Z,3.46
2023-03-28T06:59:08.654Z,3.42
2023-03-28T07:00:08.667Z,3.37
2023-03-28T07:01:08.629Z,3.33
2023-03-28T07:02:08.639Z,3.28
2023-03-28T07:03:08.665Z,3.28
2023-03-28T07:04:08.643Z,3.33
2023-03-28T07:05:08.587Z,3.37
2023-03-28T07:06:08.583Z,3.42
2023-03-28T07:07:08.565Z,3.45
2023-03-28T07:08:08.556Z,3.45
2023-03-28T07:09:08.543Z,3.44
2023-03-28T07:10:08.534Z,3.39
2023-03-28T07:11:08.520Z,3.41
2023-03-28T07:12:08.511Z,3.44
2023-03-28T07:13:08.503Z,3.98
2023-03-28T07:14:08.487Z,4.29
2023-03-28T07:15:08.498Z,4.87
2023-03-28T07:16:08.525Z,5.38
2023-03-28T07:17:08.456Z,5.85
2023-03-28T07:18:08.498Z,6.13
2023-03-28T07:19:08.437Z,6.30
2023-03-28T07:20:08.436Z,6.63
2023-03-28T07:21:08.700Z,6.25
2023-03-28T07:22:08.397Z,5.92
2023-03-28T07:23:08.436Z,5.66
2023-03-28T07:24:08.382Z,5.35
2023-03-28T07:25:08.369Z,5.47
2023-03-28T07:26:08.354Z,5.92
2023-03-28T07:27:15.357Z,6.30
2023-03-28T07:28:08.334Z,6.28
2023-03-28T07:29:08.325Z,6.27
2023-03-28T07:30:08.316Z,6.38
2023-03-28T07:31:08.360Z,6.78
2023-03-28T07:32:08.315Z,6.90
2023-03-28T07:33:18.467Z,6.65
2023-03-28T07:34:09.345Z,6.83
2023-03-28T07:35:08.261Z,7.34
2023-03-28T07:36:08.287Z,7.44
2023-03-28T07:37:08.231Z,7.70
2023-03-28T07:38:08.231Z,7.67
2023-03-28T07:39:08.221Z,7.76
2023-03-28T07:40:08.203Z,8.17
2023-03-28T07:41:08.197Z,8.57
2023-03-28T07:42:08.176Z,8.64
2023-03-28T07:43:08.164Z,8.10
2023-03-28T07:44:08.162Z,7.30
2023-03-28T07:45:08.140Z,6.73
2023-03-28T07:46:08.197Z,6.40
2023-03-28T07:47:08.121Z,6.28
2023-03-28T07:48:08.226Z,6.25
2023-03-28T07:49:08.097Z,6.17
2023-03-28T07:50:08.092Z,6.14
2023-03-28T07:51:08.077Z,6.05
2023-03-28T07:52:08.072Z,6.33
2023-03-28T07:53:08.069Z,6.57
2023-03-28T07:54:08.041Z,7.21
2023-03-28T07:55:08.030Z,7.86
2023-03-28T07:56:08.019Z,8.32
2023-03-28T07:57:08.105Z,8.47
2023-03-28T07:58:07.996Z,8.73
2023-03-28T07:59:07.994Z,9.10
2023-03-28T08:00:07.986Z,9.24
2023-03-28T08:01:07.964Z,8.98
2023-03-28T08:02:07.950Z,8.42
2023-03-28T08:03:08.061Z,7.92
2023-03-28T08:04:07.969Z,8.00
2023-03-28T08:05:07.954Z,8.54
2023-03-28T08:06:16.915Z,8.79
2023-03-28T08:07:08.916Z,9.12
2023-03-28T08:08:07.904Z,9.31
2023-03-28T08:09:07.877Z,9.49
2023-03-28T08:10:07.860Z,9.58
2023-03-28T08:11:07.891Z,9.55
2023-03-28T08:12:07.846Z,9.44
2023-03-28T08:13:07.825Z,9.35
2023-03-28T08:14:07.812Z,9.26
2023-03-28T08:15:07.804Z,9.41
2023-03-28T08:16:07.855Z,9.55
2023-03-28T08:17:07.782Z,9.42
2023-03-28T08:18:07.881Z,9.17
2023-03-28T08:19:11.877Z,9.10
2023-03-28T08:20:07.776Z,9.48
2023-03-28T08:21:07.736Z,9.75
2023-03-28T08:22:07.750Z,9.91
2023-03-28T08:23:07.726Z,10.06
2023-03-28T08:24:07.840Z,9.80
2023-03-28T08:25:07.696Z,9.83
2023-03-28T08:26:07.683Z,10.14
2023-03-28T08:27:07.680Z,10.17
2023-03-28T08:28:07.654Z,9.81
2023-03-28T08:29:07.673Z,9.74
2023-03-28T08:30:07.637Z,9.74
2023-03-28T08:31:07.657Z,9.60
2023-03-28T08:32:07.622Z,9.32
2023-03-28T08:33:07.619Z,9.70
2023-03-28T08:34:07.600Z,9.70
2023-03-28T08:35:07.586Z,9.71
2023-03-28T08:36:07.644Z,9.95
2023-03-28T08:37:07.566Z,10.20
2023-03-28T08:38:10.450Z,10.36
2023-03-28T08:39:07.537Z,10.54
2023-03-28T08:40:07.543Z,10.52
2023-03-28T08:41:07.511Z,10.60
2023-03-28T08:42:07.502Z,10.42
2023-03-28T08:43:07.484Z,10.38
2023-03-28T08:44:07.475Z,10.87
2023-03-28T08:45:07.467Z,10.75
2023-03-28T08:46:07.490Z,10.32
2023-03-28T08:47:07.442Z,10.14
2023-03-28T08:48:07.491Z,9.83
2023-03-28T08:49:07.422Z,9.99
2023-03-28T08:50:07.409Z,10.22
2023-03-28T08:51:07.397Z,10.43
2023-03-28T08:52:07.417Z,10.63
2023-03-28T08:53:07.374Z,11.01
2023-03-28T08:54:07.397Z,11.62
2023-03-28T08:55:07.359Z,11.74
2023-03-28T08:56:07.341Z,12.13
2023-03-28T08:57:07.384Z,12.12
2023-03-28T08:58:07.327Z,12.25
2023-03-28T08:59:07.335Z,12.25
2023-03-28T09:00:07.297Z,12.36
2023-03-28T09:01:07.284Z,12.37
2023-03-28T09:02:08.238Z,12.69
2023-03-28T09:03:07.469Z,12.41
2023-03-28T09:04:07.347Z,12.18
2023-03-28T09:05:21.916Z,11.63
2023-03-28T09:06:08.271Z,11.48
2023-03-28T09:07:07.229Z,11.38
2023-03-28T09:08:07.249Z,11.03
2023-03-28T09:09:07.237Z,10.80
2023-03-28T09:10:07.227Z,10.94
2023-03-28T09:11:07.200Z,10.83
2023-03-28T09:12:07.197Z,11.19
2023-03-28T09:13:07.176Z,11.49
2023-03-28T09:14:07.148Z,11.97
2023-03-28T09:15:07.143Z,12.23
2023-03-28T09:16:07.196Z,12.34
2023-03-28T09:17:07.114Z,12.18
2023-03-28T09:18:07.179Z,12.34
2023-03-28T09:19:07.125Z,12.46
2023-03-28T09:20:07.080Z,12.43
2023-03-28T09:21:07.066Z,12.21
2023-03-28T09:22:15.220Z,12.29
2023-03-28T09:23:08.147Z,12.80
2023-03-28T09:24:07.063Z,13.17
2023-03-28T09:25:07.022Z,13.14
2023-03-28T09:26:07.015Z,12.36
2023-03-28T09:27:06.999Z,12.05
2023-03-28T09:28:06.986Z,11.57
2023-03-28T09:29:06.975Z,11.70
2023-03-28T09:30:06.979Z,11.88
2023-03-28T09:31:06.966Z,11.93
2023-03-28T09:32:06.992Z,12.08
2023-03-28T09:33:07.005Z,12.23
2023-03-28T09:34:06.933Z,12.56
2023-03-28T09:35:06.910Z,12.71
2023-03-28T09:36:06.923Z,12.79
2023-03-28T09:37:06.882Z,12.84
2023-03-28T09:38:06.880Z,12.99
2023-03-28T09:39:06.862Z,13.32
2023-03-28T09:40:06.893Z,13.44
2023-03-28T09:41:06.870Z,13.25
2023-03-28T09:42:06.832Z,13.16
2023-03-28T09:43:06.817Z,12.94
2023-03-28T09:44:06.812Z,12.62
2023-03-28T09:45:06.798Z,12.26
2023-03-28T09:46:06.836Z,12.41
2023-03-28T09:47:06.783Z,12.66
2023-03-28T09:48:06.853Z,12.69
2023-03-28T09:49:06.754Z,12.88
2023-03-28T09:50:12.869Z,13.07
2023-03-28T09:51:06.728Z,13.43
2023-03-28T09:52:06.715Z,13.86
2023-03-28T09:53:06.706Z,13.86
2023-03-28T09:54:06.718Z,13.19
2023-03-28T09:55:06.690Z,12.46
2023-03-28T09:56:06.714Z,13.04
2023-03-28T09:57:06.697Z,13.43
2023-03-28T09:58:06.743Z,13.91
2023-03-28T09:59:06.664Z,13.72
2023-03-28T10:00:06.631Z,13.41
2023-03-28T10:01:06.644Z,12.73
2023-03-28T10:02:06.609Z,12.03
2023-03-28T10:03:06.684Z,12.31
2023-03-28T10:04:06.625Z,13.03
2023-03-28T10:05:06.696Z,13.71
2023-03-28T10:06:06.560Z,14.06
2023-03-28T10:07:06.549Z,13.19
2023-03-28T10:08:06.541Z,13.47
2023-03-28T10:09:06.538Z,13.73
2023-03-28T10:10:06.517Z,13.73
2023-03-28T10:11:06.511Z,13.48
2023-03-28T10:12:06.525Z,13.76
2023-03-28T10:13:06.486Z,14.53
2023-03-28T10:14:06.471Z,15.07
2023-03-28T10:15:06.470Z,15.43
2023-03-28T10:16:06.523Z,15.09
2023-03-28T10:17:06.440Z,15.09
2023-03-28T10:18:06.448Z,15.16
2023-03-28T10:19:06.419Z,15.11
2023-03-28T10:20:06.403Z,14.87
2023-03-28T10:21:06.400Z,14.57
2023-03-28T10:22:06.438Z,14.45
2023-03-28T10:23:06.373Z,14.16
2023-03-28T10:24:06.360Z,14.29
2023-03-28T10:25:06.367Z,14.31
2023-03-28T10:26:06.508Z,14.67
2023-03-28T10:27:06.344Z,15.01
2023-03-28T10:28:06.385Z,15.34
2023-03-28T10:29:06.303Z,15.44
2023-03-28T10:30:06.291Z,15.95
2023-03-28T10:31:06.289Z,16.11
2023-03-28T10:32:06.312Z,16.26
2023-03-28T10:33:06.317Z,16.26
2023-03-28T10:34:06.265Z,15.18
2023-03-28T10:35:06.281Z,14.27
2023-03-28T10:36:06.354Z,13.79
2023-03-28T10:37:06.226Z,14.53
2023-03-28T10:38:06.206Z,15.13
2023-03-28T10:39:06.194Z,15.25
2023-03-28T10:40:06.252Z,15.52
2023-03-28T10:41:06.175Z,16.22
2023-03-28T10:42:06.159Z,16.30
2023-03-28T10:43:06.150Z,16.90
2023-03-28T10:44:06.167Z,16.57
2023-03-28T10:45:06.137Z,15.13
2023-03-28T10:46:06.145Z,14.86
2023-03-28T10:47:06.106Z,14.42
2023-03-28T10:48:06.134Z,13.96
2023-03-28T10:49:06.103Z,14.16
2023-03-28T10:50:06.082Z,14.90
2023-03-28T10:51:06.072Z,15.12
2023-03-28T10:52:06.060Z,15.20
2023-03-28T10:53:06.039Z,14.42
2023-03-28T10:54:06.046Z,13.53
2023-03-28T10:55:06.019Z,12.76
2023-03-28T10:56:06.024Z,12.36
2023-03-28T10:57:06.024Z,12.43
2023-03-28T10:58:05.985Z,13.04
2023-03-28T10:59:05.975Z,13.66
2023-03-28T11:00:05.995Z,14.02
2023-03-28T11:01:05.954Z,14.30
2023-03-28T11:02:06.001Z,14.82
2023-03-28T11:03:06.009Z,15.23
2023-03-28T11:04:05.955Z,15.64
2023-03-28T11:05:05.913Z,15.56
2023-03-28T11:06:09.490Z,14.90
2023-03-28T11:07:05.881Z,14.36
2023-03-28T11:08:05.870Z,14.04
2023-03-28T11:09:05.862Z,13.98
2023-03-28T11:10:05.869Z,13.76
2023-03-28T11:11:05.837Z,13.32
2023-03-28T11:12:05.868Z,12.94
2023-03-28T11:13:05.812Z,12.67
2023-03-28T11:14:05.827Z,12.79
2023-03-28T11:15:05.811Z,12.92
2023-03-28T11:16:05.851Z,12.91
2023-03-28T11:17:05.772Z,13.10
2023-03-28T11:18:05.782Z,13.31
2023-03-28T11:19:05.759Z,13.69
2023-03-28T11:20:05.742Z,13.62
2023-03-28T11:21:05.727Z,13.76
2023-03-28T11:22:05.719Z,13.57
2023-03-28T11:23:06.845Z,13.46
2023-03-28T11:24:05.695Z,13.29
2023-03-28T11:25:05.725Z,13.14
2023-03-28T11:26:05.672Z,13.28
2023-03-28T11:27:15.318Z,13.04
2023-03-28T11:28:05.647Z,13.06
2023-03-28T11:29:05.638Z,13.72
2023-03-28T11:30:05.640Z,13.59
2023-03-28T11:31:05.660Z,13.27
2023-03-28T11:32:05.629Z,13.06
2023-03-28T11:33:05.663Z,12.99
2023-03-28T11:34:05.582Z,12.96
2023-03-28T11:35:05.584Z,13.06
2023-03-28T11:36:05.659Z,12.88
2023-03-28T11:37:05.750Z,12.76
2023-03-28T11:38:05.621Z,12.63
2023-03-28T11:39:05.532Z,12.52
2023-03-28T11:40:06.690Z,12.36
2023-03-28T11:41:05.504Z,12.15
2023-03-28T11:42:05.493Z,12.08
2023-03-28T11:43:05.503Z,12.12
2023-03-28T11:44:05.471Z,12.12
2023-03-28T11:45:05.462Z,12.11
2023-03-28T11:46:05.467Z,12.21
2023-03-28T11:47:05.435Z,12.22
2023-03-28T11:48:05.551Z,12.22
2023-03-28T11:49:05.415Z,12.16
2023-03-28T11:50:05.412Z,12.15
2023-03-28T11:51:05.393Z,12.07
2023-03-28T11:52:05.381Z,12.07
2023-03-28T11:53:05.366Z,12.03
2023-03-28T11:54:05.357Z,11.82
2023-03-28T11:55:05.342Z,11.79
2023-03-28T11:56:05.334Z,11.74
2023-03-28T11:57:05.382Z,11.82
2023-03-28T11:58:05.321Z,12.04
2023-03-28T11:59:05.315Z,12.18
2023-03-28T12:00:05.285Z,11.74
2023-03-28T12:01:05.325Z,11.48
2023-03-28T12:02:05.341Z,11.46
2023-03-28T12:03:05.373Z,11.30
2023-03-28T12:04:05.366Z,11.20
2023-03-28T12:05:05.225Z,11.28
2023-03-28T12:06:05.647Z,11.39
2023-03-28T12:07:05.207Z,11.49
2023-03-28T12:08:05.229Z,11.63
2023-03-28T12:09:05.188Z,11.75
2023-03-28T12:10:05.173Z,11.90
2023-03-28T12:11:05.173Z,12.04
2023-03-28T12:12:05.155Z,12.15
2023-03-28T12:13:05.145Z,12.19
2023-03-28T12:14:11.491Z,12.15
2023-03-28T12:15:05.135Z,12.05
2023-03-28T12:16:05.114Z,12.01
2023-03-28T12:17:05.144Z,11.88
2023-03-28T12:18:05.117Z,11.74
2023-03-28T12:19:05.077Z,11.62
2023-03-28T12:20:05.108Z,11.56
2023-03-28T12:21:05.062Z,11.44
2023-03-28T12:22:05.072Z,11.38
2023-03-28T12:23:05.043Z,11.51
2023-03-28T12:24:05.023Z,11.81
2023-03-28T12:25:05.010Z,12.07
2023-03-28T12:26:05.013Z,12.51
2023-03-28T12:27:05.005Z,12.94
2023-03-28T12:28:04.999Z,13.25
2023-03-28T12:29:04.969Z,13.19
2023-03-28T12:30:04.976Z,13.28
2023-03-28T12:31:05.023Z,13.16
2023-03-28T12:32:04.936Z,12.96
2023-03-28T12:33:04.984Z,12.71
2023-03-28T12:34:04.912Z,12.63
2023-03-28T12:35:05.169Z,12.74
2023-03-28T12:36:04.940Z,12.81
2023-03-28T12:37:04.882Z,12.81
2023-03-28T12:38:04.868Z,13.12
2023-03-28T12:39:04.858Z,13.27
2023-03-28T12:40:04.842Z,13.28
2023-03-28T12:41:04.831Z,13.35
2023-03-28T12:42:04.830Z,13.48
2023-03-28T12:43:04.826Z,13.59
2023-03-28T12:44:04.832Z,13.79
2023-03-28T12:45:04.835Z,14.52
2023-03-28T12:46:04.804Z,15.16
2023-03-28T12:47:04.773Z,15.86
2023-03-28T12:48:04.836Z,16.03
2023-03-28T12:49:04.754Z,16.69
2023-03-28T12:50:04.733Z,16.73
2023-03-28T12:51:04.717Z,15.80
2023-03-28T12:52:04.735Z,14.97
2023-03-28T12:53:04.704Z,14.26
2023-03-28T12:54:04.685Z,13.83
2023-03-28T12:55:04.674Z,13.44
2023-03-28T12:56:04.671Z,13.09
2023-03-28T12:57:04.718Z,12.77
2023-03-28T12:58:04.638Z,12.70
2023-03-28T12:59:04.633Z,12.54
2023-03-28T13:00:04.624Z,12.30
2023-03-28T13:01:04.665Z,12.38
2023-03-28T13:02:04.644Z,12.25
2023-03-28T13:03:04.618Z,12.05
2023-03-28T13:04:04.635Z,12.00
2023-03-28T13:05:04.566Z,12.04
2023-03-28T13:06:04.552Z,12.01
2023-03-28T13:07:04.542Z,12.12
2023-03-28T13:08:04.575Z,12.33
2023-03-28T13:09:04.553Z,12.36